Time;durP1;ratioP1;P1;durP2;ratioP2;P2;SDS_P1;SDS_P2;PMS_P1;PMS_P2;Temp;Humidity;BMP_temperature;BMP_pressure;BME280_temperature;BME280_humidity;BME280_pressure;Samples;Min_cycle;Max_cycle;Signal;HPM_P1;HPM_P2
2020/02/03 19:06:39;;;;;;;4.4;1.1;;;;;;;6.5;100;958.1663;;;;
2020/02/03 19:09:28;;;;;;;6;2.4;;;;;;;6.41;100;958.152;;;;
2020/02/03 19:11:53;;;;;;;3.4;1.9;;;;;;;6.47;100;958.0286;;;;
2020/02/03 19:14:19;;;;;;;5.1;2.4;;;;;;;6.38;100;957.9584;;;;
2020/02/03 19:16:44;;;;;;;4;2;;;;;;;6.31;100;957.9005;;;;
2020/02/03 19:24:03;;;;;;;5.6;2.8;;;;;;;6.51;100;957.8201;;;;
2020/02/03 19:26:24;;;;;;;5.5;2.5;;;;;;;6.48;100;957.6671;;;;
2020/02/03 19:28:49;;;;;;;6.2;3.6;;;;;;;6.55;100;957.5718;;;;
2020/02/03 19:32:13;;;;;;;6;3.3;;;;;;;6.56;100;957.6583;;;;
2020/02/03 19:34:28;;;;;;;6.2;3.4;;;;;;;6.47;100;957.7095;;;;
2020/02/03 19:36:53;;;;;;;5.7;2.8;;;;;;;6.54;100;957.3248;;;;
2020/02/03 19:39:18;;;;;;;6.9;2.4;;;;;;;6.51;100;957.3036;;;;
2020/02/03 19:41:43;;;;;;;6.7;2.7;;;;;;;6.56;100;957.1539;;;;
2020/02/03 19:44:08;;;;;;;9.1;3;;;;;;;6.45;100;956.9125;;;;
2020/02/03 19:46:34;;;;;;;6.4;2.7;;;;;;;6.57;100;956.9648;;;;
2020/02/03 19:48:59;;;;;;;4.1;2.1;;;;;;;6.59;100;957.0017;;;;
2020/02/03 19:51:24;;;;;;;5.4;2.2;;;;;;;6.7;100;956.8453;;;;
2020/02/03 19:53:49;;;;;;;4.6;2.4;;;;;;;6.46;100;956.5218;;;;
2020/02/03 19:56:14;;;;;;;5;2.5;;;;;;;6.51;100;956.5137;;;;
2020/02/03 19:58:39;;;;;;;6;2.8;;;;;;;6.56;100;956.6155;;;;
2020/02/03 20:01:04;;;;;;;6.2;2.8;;;;;;;6.48;100;956.4885;;;;
2020/02/03 20:03:29;;;;;;;6.9;3.2;;;;;;;6.51;100;956.5792;;;;
2020/02/03 20:05:55;;;;;;;5.1;3.2;;;;;;;6.47;100;956.4235;;;;
2020/02/03 20:08:20;;;;;;;7.4;3.4;;;;;;;6.52;100;956.407;;;;
2020/02/03 20:10:45;;;;;;;5.3;3;;;;;;;6.55;100;956.3602;;;;
2020/02/03 20:13:10;;;;;;;5.3;3.1;;;;;;;6.63;100;956.4557;;;;
2020/02/03 20:15:46;;;;;;;6.7;3.6;;;;;;;6.59;100;956.2838;;;;
2020/02/03 20:18:06;;;;;;;6.2;3.1;;;;;;;6.66;100;956.2808;;;;
2020/02/03 20:20:32;;;;;;;4.6;2.8;;;;;;;6.71;100;956.1219;;;;
2020/02/03 20:23:10;;;;;;;6.3;3.1;;;;;;;6.75;100;955.9951;;;;
2020/02/03 20:25:44;;;;;;;5.7;2.8;;;;;;;6.78;100;955.9101;;;;
2020/02/03 20:28:04;;;;;;;5.2;3.3;;;;;;;6.84;100;955.7361;;;;
2020/02/03 20:32:39;;;;;;;8.2;5.3;;;;;;;6.89;100;955.7253;;;;
2020/02/03 20:35:02;;;;;;;9.6;6.2;;;;;;;6.82;100;955.4701;;;;
2020/02/03 20:37:29;;;;;;;11;7.1;;;;;;;6.66;100;955.5094;;;;
2020/02/03 20:40:09;;;;;;;7.8;5.5;;;;;;;6.66;100;955.4641;;;;
2020/02/03 20:44:56;;;;;;;5.9;4.5;;;;;;;6.73;100;955.2698;;;;
2020/02/03 20:47:17;;;;;;;6.6;4.2;;;;;;;6.73;100;955.2261;;;;
2020/02/03 20:49:39;;;;;;;6.9;5.4;;;;;;;6.58;100;955.0934;;;;
2020/02/03 20:59:16;;;;;;;8.8;5;;;;;;;6.47;100;954.7539;;;;
2020/02/03 21:01:44;;;;;;;8.1;5.8;;;;;;;6.5;100;954.6666;;;;
2020/02/03 21:05:50;;;;;;;10.6;5.8;;;;;;;6.58;100;954.5874;;;;
2020/02/03 21:06:52;;;;;;;10.4;6.2;;;;;;;6.48;100;954.5469;;;;
2020/02/03 21:08:56;;;;;;;7.3;5.3;;;;;;;6.49;100;954.4462;;;;
2020/02/03 21:12:12;;;;;;;9.9;6.1;;;;;;;6.38;100;954.3323;;;;
2020/02/03 21:13:45;;;;;;;8.4;6.2;;;;;;;6.39;100;954.3284;;;;
2020/02/03 21:16:10;;;;;;;8.9;6.5;;;;;;;6.4;100;954.3043;;;;
2020/02/03 21:18:39;;;;;;;7.9;6.7;;;;;;;6.43;100;954.2517;;;;
2020/02/03 21:21:25;;;;;;;11;9.2;;;;;;;6.45;100;954.0792;;;;
2020/02/03 21:23:43;;;;;;;12.3;9.1;;;;;;;6.42;100;954.0234;;;;
2020/02/03 21:26:08;;;;;;;11.3;9.2;;;;;;;6.46;100;953.9911;;;;
2020/02/03 21:28:33;;;;;;;10.5;8.6;;;;;;;6.52;100;953.8975;;;;
2020/02/03 21:30:58;;;;;;;10.9;9;;;;;;;6.52;100;953.7805;;;;
2020/02/03 21:33:23;;;;;;;9.2;8.1;;;;;;;6.56;100;953.6839;;;;
2020/02/03 21:35:48;;;;;;;11;9;;;;;;;6.56;100;953.5842;;;;
2020/02/03 21:38:13;;;;;;;10.6;8.3;;;;;;;6.59;100;953.5162;;;;
2020/02/03 21:40:38;;;;;;;8.9;7.9;;;;;;;6.66;100;953.3915;;;;
2020/02/03 21:43:03;;;;;;;11.1;8.1;;;;;;;6.55;100;953.2811;;;;
2020/02/03 21:45:29;;;;;;;9.7;8.2;;;;;;;6.6;100;953.0881;;;;
2020/02/03 21:47:54;;;;;;;13.7;9.1;;;;;;;6.63;100;953.0516;;;;
2020/02/03 21:50:19;;;;;;;10.4;9.1;;;;;;;6.64;100;952.9105;;;;
2020/02/03 21:52:44;;;;;;;9.3;8.1;;;;;;;6.76;100;952.7355;;;;
2020/02/03 21:55:10;;;;;;;13;11;;;;;;;6.78;100;952.6381;;;;
2020/02/03 21:57:34;;;;;;;18.2;15;;;;;;;6.72;100;952.6044;;;;
2020/02/03 22:00:00;;;;;;;17.9;13.4;;;;;;;6.71;100;952.5687;;;;
2020/02/03 22:02:38;;;;;;;14.3;11.7;;;;;;;6.61;100;952.5552;;;;
2020/02/03 22:04:51;;;;;;;13.5;11;;;;;;;6.69;100;952.5745;;;;
2020/02/03 22:07:29;;;;;;;14.5;10.9;;;;;;;6.67;100;952.4372;;;;
2020/02/03 22:10:30;;;;;;;13.5;10.8;;;;;;;6.65;100;952.2921;;;;
2020/02/03 22:12:18;;;;;;;11.2;10.1;;;;;;;6.74;100;952.3223;;;;
2020/02/03 22:14:49;;;;;;;11.7;9.3;;;;;;;6.83;100;952.2661;;;;
2020/02/03 22:17:13;;;;;;;12.2;8.9;;;;;;;6.81;100;952.1335;;;;
2020/02/03 22:20:02;;;;;;;12.2;9.3;;;;;;;6.89;100;952.0065;;;;
2020/02/03 22:21:56;;;;;;;12.7;8.4;;;;;;;6.95;100;951.8895;;;;
2020/02/03 22:24:21;;;;;;;12.5;8.2;;;;;;;7.05;100;951.7513;;;;
2020/02/03 22:34:06;;;;;;;20.3;5.6;;;;;;;8.27;100;951.2133;;;;
2020/02/03 22:36:32;;;;;;;18.5;5.1;;;;;;;8.6;100;951.1206;;;;
2020/02/03 22:41:23;;;;;;;19.1;5.1;;;;;;;9.04;100;950.8496;;;;
2020/02/03 22:46:11;;;;;;;21.9;5.1;;;;;;;9.38;100;950.6691;;;;
2020/02/03 22:53:23;;;;;;;19.5;4.7;;;;;;;9.54;100;950.4267;;;;
2020/02/03 22:58:08;;;;;;;20.5;4.7;;;;;;;9.59;100;950.2952;;;;
2020/02/03 23:00:59;;;;;;;22.2;5.2;;;;;;;9.87;100;950.2883;;;;
2020/02/03 23:03:36;;;;;;;20.9;5.1;;;;;;;9.7;100;950.2644;;;;
2020/02/03 23:05:53;;;;;;;21.9;4.7;;;;;;;10.01;100;950.1816;;;;
2020/02/03 23:08:10;;;;;;;21.6;4.6;;;;;;;10.23;98.50977;950.0071;;;;
2020/02/03 23:10:50;;;;;;;19.8;4.6;;;;;;;10.22;99.2207;949.7675;;;;
2020/02/03 23:13:15;;;;;;;25;4.8;;;;;;;10.14;99.17871;949.7491;;;;
2020/02/03 23:15:40;;;;;;;20.7;5;;;;;;;10.27;98.08301;949.6713;;;;
2020/02/03 23:18:05;;;;;;;23.8;5.1;;;;;;;10.46;95.29297;949.5578;;;;
2020/02/03 23:20:30;;;;;;;24.7;5.7;;;;;;;10.63;94.27344;949.4183;;;;
2020/02/03 23:23:07;;;;;;;26;5.1;;;;;;;10.39;96.0293;949.3239;;;;
2020/02/03 23:25:32;;;;;;;25.4;5.4;;;;;;;10.52;94.38574;949.347;;;;
2020/02/03 23:27:57;;;;;;;25.6;5.1;;;;;;;10.71;91.63379;949.06;;;;
2020/02/03 23:30:24;;;;;;;19.6;4.8;;;;;;;10.81;90.28223;948.9769;;;;
2020/02/03 23:32:48;;;;;;;21.1;4.6;;;;;;;10.87;88.64648;948.8359;;;;
2020/02/03 23:35:13;;;;;;;24.1;4.8;;;;;;;10.93;87.51855;948.7178;;;;
2020/02/03 23:40:03;;;;;;;25.1;5.3;;;;;;;11.15;85.36328;948.68;;;;
2020/02/03 23:42:29;;;;;;;28.9;5.6;;;;;;;11.19;84.97754;948.7658;;;;
2020/02/03 23:44:53;;;;;;;24.6;4.7;;;;;;;11.25;84.55371;948.4786;;;;
2020/02/03 23:47:21;;;;;;;22.1;4.8;;;;;;;11.26;83.62012;948.3408;;;;
2020/02/03 23:49:46;;;;;;;26.8;5.1;;;;;;;11.38;82.4209;948.2467;;;;
2020/02/03 23:52:11;;;;;;;24.2;4.9;;;;;;;11.46;81.71094;948.3052;;;;
2020/02/03 23:54:36;;;;;;;20.9;5;;;;;;;11.45;79.85059;948.0897;;;;
2020/02/03 23:57:01;;;;;;;21.8;4.7;;;;;;;11.49;78.60059;947.9471;;;;
2020/02/03 23:59:26;;;;;;;28.4;5;;;;;;;11.72;77.61719;947.7647;;;;
